aviador You're here:

KPBG Decoded Metar

PLATTSBURGH in NY, USA
Report Time2018-01-18 20:53:00
UTC Time2018-01-18 21:36:02
Flight Rules vfr VFR
WindVRB at 04 kt
Visibility9999 m
Phenomena:N/A
Clouds:Overcast 041 Hf
Expected CloudBase > 2,400 ft AGL from Temp-Dew spread
Ceiling4,100 ft
Temp-2°C (ISA -17)
Dew Point-8°C (64% RH)
AAT-6.3°C
QNH1013 hPa
Density Alt-1,745 ft
Elevation236 ft
Report Wrong Elevation
Raw Report
METAR KPBG 182053Z AUTO VRB04KT 10SM OVC041 M02/M08 A2992 RMK AO2 SLP134
T10221083 58000=

Extra information for KPBG:More info

Metar Taf Metar & Taf Last 4 Metars F.Rules Stats Wind Profile Meteogram Temp Stats Airport Information Weather charts Add Link Nearby VenuesMetar ALERT Operation Metar Decoded Social comments

AIRNAV info for KPBG